Time;durP1;ratioP1;P1;durP2;ratioP2;P2;SDS_P1;SDS_P2;PMS_P1;PMS_P2;Temp;Humidity;BMP_temperature;BMP_pressure;BME280_temperature;BME280_humidity;BME280_pressure;Samples;Min_cycle;Max_cycle;Signal;HPM_P1;HPM_P2
2022/12/04 00:00:00;;;;;;;;;;;5.10;99.90;;;;;;6126754;23;19901;-74
2022/12/04 00:02:26;;;;;;;;;;;5.10;99.90;;;;;;6126516;23;19919;-75
2022/12/04 00:04:51;;;;;;;;;;;5.10;99.90;;;;;;6127334;23;19923;-75
2022/12/04 00:07:17;;;;;;;;;;;5.10;99.90;;;;;;6126761;23;19908;-76
2022/12/04 00:09:43;;;;;;;;;;;5.00;99.90;;;;;;6127802;23;20031;-75
2022/12/04 00:12:08;;;;;;;;;;;5.20;99.90;;;;;;6129181;23;20028;-76
2022/12/04 00:14:34;;;;;;;;;;;5.10;99.90;;;;;;6128664;23;20370;-76
2022/12/04 00:16:59;;;;;;;;;;;5.00;99.90;;;;;;6128675;23;19901;-75
2022/12/04 00:19:25;;;;;;;;;;;5.00;99.90;;;;;;6129584;23;19901;-75
2022/12/04 00:21:51;;;;;;;;;;;5.00;99.90;;;;;;6128718;23;19901;-75
2022/12/04 00:24:16;;;;;;;;;;;4.90;99.90;;;;;;6102720;23;19901;-75
2022/12/04 00:26:42;;;;;;;;;;;4.90;99.90;;;;;;6128949;23;19901;-74
2022/12/04 00:29:07;;;;;;;;;;;5.00;99.90;;;;;;6129017;23;19941;-75
2022/12/04 00:31:33;;;;;;;;;;;5.00;99.90;;;;;;6128571;23;19979;-75
2022/12/04 00:33:59;;;;;;;;;;;5.00;99.90;;;;;;6128550;23;19901;-75
2022/12/04 00:36:26;;;;;;;;;;;5.00;99.90;;;;;;6128640;23;19967;-75
2022/12/04 00:38:52;;;;;;;;;;;4.90;99.90;;;;;;6128770;23;19908;-76
2022/12/04 00:41:19;;;;;;;;;;;5.00;99.90;;;;;;6128473;23;19901;-76
2022/12/04 00:43:44;;;;;;;;;;;4.90;99.90;;;;;;6128485;23;19901;-76
2022/12/04 00:46:10;;;;;;;;;;;4.90;99.90;;;;;;6128468;23;19908;-75
2022/12/04 00:48:36;;;;;;;;;;;5.00;99.90;;;;;;6128540;23;19936;-75
2022/12/04 00:51:03;;;;;;;;;;;5.10;99.90;;;;;;6128396;23;19951;-75
2022/12/04 00:53:28;;;;;;;;;;;5.00;99.90;;;;;;6128486;23;19905;-76
2022/12/04 00:55:54;;;;;;;;;;;5.10;99.90;;;;;;6128394;23;20283;-76
2022/12/04 00:58:19;;;;;;;;;;;5.00;99.90;;;;;;6128282;23;19908;-76
2022/12/04 01:00:45;;;;;;;;;;;5.00;99.90;;;;;;6128334;23;19976;-75
2022/12/04 01:03:10;;;;;;;;;;;5.10;99.90;;;;;;6102111;23;20328;-75
2022/12/04 01:05:40;;;;;;;;;;;5.10;99.90;;;;;;6128505;23;19904;-76
2022/12/04 01:08:06;;;;;;;;;;;5.10;99.90;;;;;;6128221;23;19905;-75
2022/12/04 01:10:31;;;;;;;;;;;5.10;99.90;;;;;;6128223;23;19908;-75
2022/12/04 01:12:57;;;;;;;;;;;5.00;99.90;;;;;;6128241;23;19928;-75
2022/12/04 01:15:23;;;;;;;;;;;5.10;99.90;;;;;;6128187;23;19908;-75
2022/12/04 01:17:48;;;;;;;;;;;5.10;99.90;;;;;;6102806;23;19912;-76
2022/12/04 01:20:15;;;;;;;;;;;5.10;99.90;;;;;;6128159;23;19923;-75
2022/12/04 01:22:40;;;;;;;;;;;5.00;99.90;;;;;;6128140;23;20332;-75
2022/12/04 01:25:06;;;;;;;;;;;4.90;99.90;;;;;;6128143;23;19980;-75
2022/12/04 01:27:32;;;;;;;;;;;4.80;99.90;;;;;;6127986;23;19924;-75
2022/12/04 01:29:57;;;;;;;;;;;4.80;99.90;;;;;;6127962;23;19916;-76
2022/12/04 01:32:23;;;;;;;;;;;4.80;99.90;;;;;;6127991;23;19901;-75
2022/12/04 01:34:49;;;;;;;;;;;4.80;99.90;;;;;;6128148;23;19900;-75
2022/12/04 01:37:14;;;;;;;;;;;4.70;99.90;;;;;;6127946;23;20343;-75
2022/12/04 01:39:40;;;;;;;;;;;4.70;99.90;;;;;;6128484;23;19901;-75
2022/12/04 01:42:08;;;;;;;;;;;4.70;99.90;;;;;;6128611;23;19959;-76
2022/12/04 01:44:34;;;;;;;;;;;4.70;99.90;;;;;;6128075;23;19901;-75
2022/12/04 01:47:00;;;;;;;;;;;4.70;99.90;;;;;;6127921;23;20335;-74
2022/12/04 01:49:38;;;;;;;;;;;4.70;99.90;;;;;;6127761;23;19905;-74
2022/12/04 01:52:06;;;;;;;;;;;4.80;99.90;;;;;;6127775;23;19901;-75
2022/12/04 01:54:33;;;;;;;;;;;4.60;99.90;;;;;;6127822;23;20316;-75
2022/12/04 01:56:59;;;;;;;;;;;4.50;99.90;;;;;;6127932;23;19905;-75
2022/12/04 01:59:27;;;;;;;;;;;4.50;99.90;;;;;;6101770;23;19923;-74
2022/12/04 02:01:55;;;;;;;;;;;4.60;99.90;;;;;;6127833;23;19915;-75
2022/12/04 02:04:21;;;;;;;;;;;4.60;99.90;;;;;;6127985;23;19901;-75
2022/12/04 02:06:47;;;;;;;;;;;4.60;99.90;;;;;;6128008;23;19901;-75
2022/12/04 02:09:13;;;;;;;;;;;4.60;99.90;;;;;;6127605;23;19904;-74
2022/12/04 02:11:41;;;;;;;;;;;4.60;99.90;;;;;;6127643;23;20288;-75
2022/12/04 02:14:07;;;;;;;;;;;4.50;99.90;;;;;;6127585;23;20236;-76
2022/12/04 02:16:44;;;;;;;;;;;4.50;99.90;;;;;;6127255;23;20332;-75
2022/12/04 02:19:16;;;;;;;;;;;4.50;99.90;;;;;;6128238;23;19932;-75
2022/12/04 02:21:44;;;;;;;;;;;4.50;99.90;;;;;;6127787;23;19901;-74
2022/12/04 02:24:20;;;;;;;;;;;4.40;99.90;;;;;;6127534;23;20280;-76
2022/12/04 02:26:54;;;;;;;;;;;4.20;99.90;;;;;;6127563;23;19900;-75
2022/12/04 02:29:43;;;;;;;;;;;4.20;99.90;;;;;;6127463;23;19905;-76
2022/12/04 02:32:22;;;;;;;;;;;4.20;99.90;;;;;;6115239;23;19911;-75
2022/12/04 02:34:55;;;;;;;;;;;4.20;99.90;;;;;;6127437;23;19901;-75
2022/12/04 02:37:25;;;;;;;;;;;4.20;99.90;;;;;;6128114;23;19908;-75
2022/12/04 02:39:54;;;;;;;;;;;4.30;99.90;;;;;;6127382;23;20225;-75
2022/12/04 02:42:26;;;;;;;;;;;4.30;99.90;;;;;;6127468;23;19908;-76
2022/12/04 02:44:56;;;;;;;;;;;4.30;99.90;;;;;;6127459;23;19908;-75
2022/12/04 02:47:22;;;;;;;;;;;4.40;99.90;;;;;;6101330;23;20342;-75
2022/12/04 02:49:52;;;;;;;;;;;4.50;99.90;;;;;;6127207;23;19904;-75
2022/12/04 02:52:20;;;;;;;;;;;4.50;99.90;;;;;;6127267;23;20284;-75
2022/12/04 02:54:48;;;;;;;;;;;4.50;99.90;;;;;;6127348;23;19900;-75
2022/12/04 02:57:17;;;;;;;;;;;4.60;99.90;;;;;;6127237;23;19901;-76
2022/12/04 02:59:44;;;;;;;;;;;4.50;99.90;;;;;;6127480;23;19901;-75
2022/12/04 03:02:24;;;;;;;;;;;4.40;99.90;;;;;;6127160;23;19988;-76
2022/12/04 03:04:50;;;;;;;;;;;4.30;99.90;;;;;;6127397;23;19904;-75
2022/12/04 03:07:23;;;;;;;;;;;4.40;99.90;;;;;;6101238;23;19908;-75
2022/12/04 03:09:58;;;;;;;;;;;4.40;99.90;;;;;;6127807;23;19915;-76
2022/12/04 03:12:42;;;;;;;;;;;4.40;99.90;;;;;;6127267;23;19951;-76
2022/12/04 03:15:15;;;;;;;;;;;4.40;99.90;;;;;;6127043;23;19904;-76
2022/12/04 03:17:46;;;;;;;;;;;4.50;99.90;;;;;;6127959;23;20236;-75
2022/12/04 03:20:14;;;;;;;;;;;4.50;99.90;;;;;;6127405;23;19947;-75
2022/12/04 03:22:41;;;;;;;;;;;4.40;99.90;;;;;;6127029;23;19901;-75
2022/12/04 03:25:07;;;;;;;;;;;4.50;99.90;;;;;;6127015;23;19901;-77
2022/12/04 03:27:41;;;;;;;;;;;4.50;99.90;;;;;;6126969;23;19908;-75
2022/12/04 03:30:11;;;;;;;;;;;4.50;99.90;;;;;;6127425;23;19912;-75
2022/12/04 03:32:43;;;;;;;;;;;4.50;99.90;;;;;;6126885;23;19928;-75
2022/12/04 03:35:15;;;;;;;;;;;4.50;99.90;;;;;;6126928;23;19912;-74
2022/12/04 03:37:49;;;;;;;;;;;4.50;99.90;;;;;;6127214;23;19907;-76
2022/12/04 03:40:35;;;;;;;;;;;4.50;99.90;;;;;;6127200;23;19901;-77
2022/12/04 03:43:24;;;;;;;;;;;4.60;99.90;;;;;;6126219;23;19901;-74
2022/12/04 03:45:50;;;;;;;;;;;4.60;99.90;;;;;;6127372;23;19972;-76
2022/12/04 03:48:18;;;;;;;;;;;4.60;99.90;;;;;;6126787;23;19939;-75
2022/12/04 03:50:48;;;;;;;;;;;4.60;99.90;;;;;;6125314;23;19904;-76
2022/12/04 03:53:17;;;;;;;;;;;4.60;99.90;;;;;;6126789;23;19900;-75
2022/12/04 03:55:49;;;;;;;;;;;4.60;99.90;;;;;;6126766;23;19908;-76
2022/12/04 03:58:18;;;;;;;;;;;4.50;99.90;;;;;;6126758;23;20330;-76
2022/12/04 04:00:44;;;;;;;;;;;4.50;99.90;;;;;;6126956;23;19905;-75
2022/12/04 04:03:13;;;;;;;;;;;4.40;99.90;;;;;;6126662;23;19996;-75
2022/12/04 04:05:41;;;;;;;;;;;4.50;99.90;;;;;;6126739;23;19944;-75
2022/12/04 04:08:26;;;;;;;;;;;4.50;99.90;;;;;;6126894;23;19905;-75
2022/12/04 04:10:54;;;;;;;;;;;4.50;99.90;;;;;;6126921;23;20304;-75
2022/12/04 04:24:35;;;;;;;;;;;4.60;99.90;;;;;;6126416;23;19908;-74
2022/12/04 04:27:00;;;;;;;;;;;4.60;99.90;;;;;;6126853;23;20316;-75
2022/12/04 04:29:26;;;;;;;;;;;4.70;99.90;;;;;;6126176;23;19956;-75
2022/12/04 04:32:09;;;;;;;;;;;4.80;99.90;;;;;;6126635;23;19901;-75
2022/12/04 04:34:53;;;;;;;;;;;4.70;99.90;;;;;;6100774;23;20235;-75
2022/12/04 04:37:18;;;;;;;;;;;4.60;99.90;;;;;;6100655;23;20291;-76
2022/12/04 04:39:47;;;;;;;;;;;4.50;99.90;;;;;;6126674;23;19901;-76
2022/12/04 04:42:17;;;;;;;;;;;4.60;99.90;;;;;;6126818;23;19983;-74
2022/12/04 04:44:51;;;;;;;;;;;4.60;99.90;;;;;;6126928;23;20286;-75
2022/12/04 04:47:30;;;;;;;;;;;4.50;99.90;;;;;;6126706;23;19901;-75
2022/12/04 04:49:57;;;;;;;;;;;4.50;99.90;;;;;;6126547;23;19912;-76
2022/12/04 04:52:23;;;;;;;;;;;4.50;99.90;;;;;;6126602;23;19908;-76
2022/12/04 04:54:48;;;;;;;;;;;4.40;99.90;;;;;;6126951;23;19984;-76
2022/12/04 04:57:24;;;;;;;;;;;4.40;99.90;;;;;;6128411;23;19901;-75
2022/12/04 04:59:49;;;;;;;;;;;4.40;99.90;;;;;;6128685;23;20255;-75
2022/12/04 05:02:15;;;;;;;;;;;4.40;99.90;;;;;;6128062;23;19912;-76
2022/12/04 05:04:40;;;;;;;;;;;4.30;99.90;;;;;;6128552;23;20038;-74
2022/12/04 05:07:06;;;;;;;;;;;4.30;99.90;;;;;;6128272;23;19901;-75
2022/12/04 05:09:32;;;;;;;;;;;4.30;99.90;;;;;;6128201;23;19928;-75
2022/12/04 05:11:57;;;;;;;;;;;4.30;99.90;;;;;;6128732;23;20328;-75
2022/12/04 05:14:23;;;;;;;;;;;4.30;99.90;;;;;;6128403;23;20371;-75
2022/12/04 05:16:48;;;;;;;;;;;4.30;99.90;;;;;;6128464;23;20354;-75
2022/12/04 05:21:58;;;;;;;;;;;4.30;99.90;;;;;;6127903;23;19936;-76
2022/12/04 05:24:24;;;;;;;;;;;4.30;99.90;;;;;;6128356;23;20284;-75
2022/12/04 05:26:49;;;;;;;;;;;4.30;99.90;;;;;;6127621;23;19971;-76
2022/12/04 05:29:15;;;;;;;;;;;4.40;99.90;;;;;;6127956;23;20324;-76
2022/12/04 05:31:41;;;;;;;;;;;4.50;99.90;;;;;;6102128;23;19901;-76
2022/12/04 05:34:06;;;;;;;;;;;4.40;99.90;;;;;;6127623;23;19925;-76
2022/12/04 05:36:32;;;;;;;;;;;4.50;99.90;;;;;;6128362;23;20316;-75
2022/12/04 05:38:57;;;;;;;;;;;4.40;99.90;;;;;;6127982;23;19901;-76
2022/12/04 05:41:23;;;;;;;;;;;4.50;99.90;;;;;;6128064;23;19908;-74
2022/12/04 05:43:48;;;;;;;;;;;4.40;99.90;;;;;;6127964;23;19905;-76
2022/12/04 05:46:14;;;;;;;;;;;4.50;99.90;;;;;;6127966;23;20239;-76
2022/12/04 05:48:39;;;;;;;;;;;4.60;99.90;;;;;;6126326;23;19911;-75
2022/12/04 05:51:06;;;;;;;;;;;4.70;99.90;;;;;;6127924;23;20336;-76
2022/12/04 05:53:31;;;;;;;;;;;4.70;99.90;;;;;;6128072;23;20321;-75
2022/12/04 05:55:58;;;;;;;;;;;4.70;99.90;;;;;;6127928;23;19976;-75
2022/12/04 05:58:24;;;;;;;;;;;4.70;99.90;;;;;;6127727;23;19905;-76
2022/12/04 06:00:49;;;;;;;;;;;4.60;99.90;;;;;;6127789;23;19956;-76
2022/12/04 06:03:15;;;;;;;;;;;4.50;99.90;;;;;;6127502;23;19912;-76
2022/12/04 06:05:41;;;;;;;;;;;4.40;99.90;;;;;;6127717;23;19939;-76
2022/12/04 06:08:06;;;;;;;;;;;4.40;99.90;;;;;;6127357;23;19952;-75
2022/12/04 06:10:32;;;;;;;;;;;4.40;99.90;;;;;;6127709;23;19924;-75
2022/12/04 06:12:58;;;;;;;;;;;4.40;99.90;;;;;;6127894;23;19984;-76
2022/12/04 06:15:23;;;;;;;;;;;4.40;99.90;;;;;;6127997;23;19901;-76
2022/12/04 06:17:49;;;;;;;;;;;4.40;99.90;;;;;;6127621;23;19901;-76
2022/12/04 06:20:14;;;;;;;;;;;4.30;99.90;;;;;;6127537;23;19900;-75
2022/12/04 06:22:40;;;;;;;;;;;4.40;99.90;;;;;;6127546;23;19901;-75
2022/12/04 06:25:06;;;;;;;;;;;4.40;99.90;;;;;;6127540;23;20371;-75
2022/12/04 06:27:31;;;;;;;;;;;4.40;99.90;;;;;;6127467;23;19901;-75
2022/12/04 06:29:57;;;;;;;;;;;4.50;99.90;;;;;;6127391;23;19985;-77
2022/12/04 06:32:23;;;;;;;;;;;4.50;99.90;;;;;;6127517;23;19947;-75
2022/12/04 06:34:51;;;;;;;;;;;4.50;99.90;;;;;;6127488;23;19912;-75
2022/12/04 06:37:17;;;;;;;;;;;4.40;99.90;;;;;;6101495;23;19901;-75
2022/12/04 06:39:43;;;;;;;;;;;4.40;99.90;;;;;;6127433;23;19901;-76
2022/12/04 06:42:08;;;;;;;;;;;4.40;99.90;;;;;;6101372;23;20028;-75
2022/12/04 06:44:34;;;;;;;;;;;4.30;99.90;;;;;;6127389;23;19901;-76
2022/12/04 06:46:59;;;;;;;;;;;4.40;99.90;;;;;;6127360;23;19901;-75
2022/12/04 06:49:25;;;;;;;;;;;4.40;99.90;;;;;;6127375;23;19912;-76
2022/12/04 06:51:51;;;;;;;;;;;4.40;99.90;;;;;;6128067;23;19901;-75
2022/12/04 06:54:16;;;;;;;;;;;4.40;99.90;;;;;;6127289;23;19923;-76
2022/12/04 06:56:42;;;;;;;;;;;4.50;99.90;;;;;;6127271;23;20235;-76
2022/12/04 06:59:07;;;;;;;;;;;4.40;99.90;;;;;;6127240;23;19932;-75
2022/12/04 07:01:33;;;;;;;;;;;4.40;99.90;;;;;;6127255;23;20396;-76
2022/12/04 07:04:00;;;;;;;;;;;4.40;99.90;;;;;;6127348;23;19991;-75
2022/12/04 07:06:27;;;;;;;;;;;4.40;99.90;;;;;;6127203;23;19908;-75
2022/12/04 07:08:54;;;;;;;;;;;4.30;99.90;;;;;;6127015;23;19988;-76
2022/12/04 07:11:20;;;;;;;;;;;4.40;99.90;;;;;;6101141;23;19923;-76
2022/12/04 07:13:48;;;;;;;;;;;4.40;99.90;;;;;;6126956;23;20336;-75
2022/12/04 07:16:14;;;;;;;;;;;4.30;99.90;;;;;;6127284;23;19900;-75
2022/12/04 07:18:40;;;;;;;;;;;4.30;99.90;;;;;;6126941;23;19908;-75
2022/12/04 07:21:07;;;;;;;;;;;4.30;99.90;;;;;;6127027;23;19901;-74
2022/12/04 07:23:32;;;;;;;;;;;4.20;99.90;;;;;;6127200;23;20036;-76
2022/12/04 07:26:02;;;;;;;;;;;4.30;99.90;;;;;;6127100;23;20220;-76
2022/12/04 07:28:28;;;;;;;;;;;4.40;99.90;;;;;;6126994;23;19904;-77
2022/12/04 07:30:53;;;;;;;;;;;4.40;99.90;;;;;;6126563;23;19908;-75
2022/12/04 07:33:19;;;;;;;;;;;4.50;99.90;;;;;;6101030;23;19905;-75
2022/12/04 07:35:44;;;;;;;;;;;4.50;99.90;;;;;;6127116;23;19959;-75
2022/12/04 07:38:10;;;;;;;;;;;4.50;99.90;;;;;;6100985;23;19908;-75
2022/12/04 07:40:36;;;;;;;;;;;4.40;99.90;;;;;;6126880;23;19947;-76
2022/12/04 07:43:01;;;;;;;;;;;4.70;99.90;;;;;;6126907;23;20220;-75
2022/12/04 07:45:27;;;;;;;;;;;4.70;99.90;;;;;;6126867;23;19901;-75
2022/12/04 07:47:53;;;;;;;;;;;4.60;99.90;;;;;;6127121;23;19996;-76
2022/12/04 07:50:18;;;;;;;;;;;4.70;99.90;;;;;;6126716;23;19919;-76
2022/12/04 07:52:44;;;;;;;;;;;4.60;99.90;;;;;;6127429;23;19905;-77
2022/12/04 07:55:09;;;;;;;;;;;4.60;99.90;;;;;;6126820;23;19900;-75
2022/12/04 07:57:35;;;;;;;;;;;4.70;99.90;;;;;;6126774;23;19929;-77
2022/12/04 08:00:00;;;;;;;;;;;4.80;99.90;;;;;;6100858;23;19901;-76
2022/12/04 08:02:26;;;;;;;;;;;4.70;99.90;;;;;;6126756;23;19920;-75
2022/12/04 08:04:51;;;;;;;;;;;4.70;99.90;;;;;;6126784;23;19905;-75
2022/12/04 08:07:17;;;;;;;;;;;4.80;99.90;;;;;;6126759;23;20286;-75
2022/12/04 08:09:43;;;;;;;;;;;4.70;99.90;;;;;;6126671;23;19911;-74
2022/12/04 08:12:08;;;;;;;;;;;4.60;99.90;;;;;;6126728;23;19909;-77
2022/12/04 08:14:34;;;;;;;;;;;4.50;99.90;;;;;;6126753;23;19948;-75
2022/12/04 08:17:00;;;;;;;;;;;4.50;99.90;;;;;;6126757;23;19901;-76
2022/12/04 08:19:25;;;;;;;;;;;4.50;99.90;;;;;;6127105;23;19929;-75
2022/12/04 08:21:52;;;;;;;;;;;4.60;99.90;;;;;;6126795;23;20286;-76
2022/12/04 08:24:18;;;;;;;;;;;4.60;99.90;;;;;;6126726;23;19935;-76
2022/12/04 08:26:43;;;;;;;;;;;4.50;99.90;;;;;;6127194;23;19983;-77
2022/12/04 08:29:09;;;;;;;;;;;4.60;99.90;;;;;;6125120;23;19909;-76
2022/12/04 08:31:35;;;;;;;;;;;4.60;99.90;;;;;;6128417;23;19900;-76
2022/12/04 08:34:02;;;;;;;;;;;4.60;99.90;;;;;;6129251;23;20275;-75
2022/12/04 08:36:28;;;;;;;;;;;4.60;99.90;;;;;;6128501;23;19901;-75
2022/12/04 08:38:53;;;;;;;;;;;4.70;99.90;;;;;;6128564;23;20308;-76
2022/12/04 08:41:22;;;;;;;;;;;4.60;99.90;;;;;;6102575;23;19979;-75
2022/12/04 08:43:47;;;;;;;;;;;4.60;99.90;;;;;;6128470;23;20351;-76
2022/12/04 08:46:14;;;;;;;;;;;4.60;99.90;;;;;;6128673;23;19901;-76
2022/12/04 08:48:40;;;;;;;;;;;4.70;99.90;;;;;;6128064;23;20221;-76
2022/12/04 08:51:07;;;;;;;;;;;4.70;99.90;;;;;;6128670;23;19948;-76
2022/12/04 08:53:33;;;;;;;;;;;4.80;99.90;;;;;;6129032;23;20347;-74
2022/12/04 08:56:02;;;;;;;;;;;4.70;99.90;;;;;;6128767;23;19901;-76
2022/12/04 08:58:28;;;;;;;;;;;4.80;99.90;;;;;;6128467;23;19979;-76
2022/12/04 09:00:53;;;;;;;;;;;4.90;99.90;;;;;;6128808;23;19905;-76
2022/12/04 09:03:19;;;;;;;;;;;4.90;99.90;;;;;;6127836;23;19923;-76
2022/12/04 09:05:45;;;;;;;;;;;5.00;99.90;;;;;;6128328;23;19980;-76
2022/12/04 09:08:12;;;;;;;;;;;4.90;99.90;;;;;;6128234;23;20252;-75
2022/12/04 09:10:38;;;;;;;;;;;5.00;99.90;;;;;;6128190;23;19901;-75
2022/12/04 09:13:04;;;;;;;;;;;4.90;99.90;;;;;;6128225;23;19955;-76
2022/12/04 09:15:29;;;;;;;;;;;4.80;99.90;;;;;;6102251;23;19901;-75
2022/12/04 09:17:55;;;;;;;;;;;4.90;99.90;;;;;;6128442;23;19901;-76
2022/12/04 09:20:20;;;;;;;;;;;5.00;99.90;;;;;;6128154;23;19901;-76
2022/12/04 09:22:46;;;;;;;;;;;4.90;99.90;;;;;;6128525;23;20236;-75
2022/12/04 09:25:11;;;;;;;;;;;4.90;99.90;;;;;;6128103;23;19901;-76
2022/12/04 09:27:38;;;;;;;;;;;4.80;99.90;;;;;;6126487;23;19905;-75
2022/12/04 09:30:04;;;;;;;;;;;4.70;99.90;;;;;;6127988;23;19905;-75
2022/12/04 09:32:29;;;;;;;;;;;4.90;99.90;;;;;;6128242;23;20316;-75
2022/12/04 09:34:55;;;;;;;;;;;5.00;99.90;;;;;;6128035;23;19901;-76
2022/12/04 09:37:20;;;;;;;;;;;5.00;99.90;;;;;;6128050;23;19976;-75
2022/12/04 09:39:46;;;;;;;;;;;5.00;99.90;;;;;;6127969;23;19967;-77
2022/12/04 09:42:14;;;;;;;;;;;5.00;99.90;;;;;;6127308;23;19901;-75
2022/12/04 09:44:40;;;;;;;;;;;5.10;99.90;;;;;;6128228;23;19923;-75
2022/12/04 09:47:18;;;;;;;;;;;5.20;99.90;;;;;;6128055;23;20379;-75
2022/12/04 09:49:44;;;;;;;;;;;5.40;99.90;;;;;;6101534;23;19909;-76
2022/12/04 09:52:21;;;;;;;;;;;5.40;99.90;;;;;;6128477;23;20372;-76
2022/12/04 09:54:47;;;;;;;;;;;5.40;99.90;;;;;;6128234;23;19979;-75
2022/12/04 09:57:15;;;;;;;;;;;5.40;99.90;;;;;;6127792;23;19996;-75
2022/12/04 09:59:42;;;;;;;;;;;5.40;99.90;;;;;;6127837;23;19901;-76
2022/12/04 10:02:11;;;;;;;;;;;5.60;99.90;;;;;;6121079;23;19909;-76
2022/12/04 10:04:36;;;;;;;;;;;5.80;99.90;;;;;;6098740;23;19902;-77
2022/12/04 10:07:06;;;;;;;;;;;5.80;99.90;;;;;;6098357;23;19924;-75
2022/12/04 10:09:31;;;;;;;;;;;5.90;99.90;;;;;;6098347;23;19905;-75
2022/12/04 10:12:00;;;;;;;;;;;5.70;99.90;;;;;;6098389;23;20357;-75
2022/12/04 10:14:45;;;;;;;;;;;5.70;99.90;;;;;;6096798;23;20342;-75
2022/12/04 10:17:19;;;;;;;;;;;5.70;99.90;;;;;;6098580;23;19908;-75
2022/12/04 10:19:51;;;;;;;;;;;5.50;99.90;;;;;;6098333;23;19901;-76
2022/12/04 10:22:16;;;;;;;;;;;5.50;99.90;;;;;;6098469;23;19908;-76
2022/12/04 10:24:50;;;;;;;;;;;5.50;99.90;;;;;;6098239;23;19902;-76
2022/12/04 10:27:20;;;;;;;;;;;5.50;99.90;;;;;;6098318;23;19952;-76
2022/12/04 10:29:48;;;;;;;;;;;5.60;99.90;;;;;;6098375;23;19988;-75
2022/12/04 10:32:21;;;;;;;;;;;5.50;99.90;;;;;;6098225;23;20240;-75
2022/12/04 10:34:48;;;;;;;;;;;5.50;99.90;;;;;;6098383;23;19924;-76
2022/12/04 10:37:14;;;;;;;;;;;5.60;99.90;;;;;;6098290;23;19901;-76
2022/12/04 10:39:51;;;;;;;;;;;5.70;99.90;;;;;;6098104;23;19954;-76
2022/12/04 10:42:36;;;;;;;;;;;5.60;99.90;;;;;;6098319;23;19901;-75
2022/12/04 10:45:03;;;;;;;;;;;5.70;99.90;;;;;;6096533;23;19908;-75
2022/12/04 10:47:29;;;;;;;;;;;5.70;99.90;;;;;;6098078;23;19905;-76
2022/12/04 10:49:59;;;;;;;;;;;5.60;99.90;;;;;;6098367;23;20324;-76
2022/12/04 10:52:25;;;;;;;;;;;5.60;99.90;;;;;;6093367;23;19901;-77
2022/12/04 10:55:00;;;;;;;;;;;5.60;99.90;;;;;;6098057;23;19901;-77
2022/12/04 10:57:44;;;;;;;;;;;5.60;99.90;;;;;;6097943;23;20317;-76
2022/12/04 11:00:23;;;;;;;;;;;5.70;99.90;;;;;;6097973;23;20239;-76
2022/12/04 11:02:49;;;;;;;;;;;5.60;99.90;;;;;;6113921;23;19936;-76
2022/12/04 11:05:25;;;;;;;;;;;5.50;99.90;;;;;;6127269;23;20295;-77
2022/12/04 11:07:51;;;;;;;;;;;5.40;99.90;;;;;;6127408;23;19908;-77
2022/12/04 11:10:22;;;;;;;;;;;5.40;99.90;;;;;;6127369;23;19905;-76
2022/12/04 11:12:55;;;;;;;;;;;5.40;99.90;;;;;;6127085;23;19941;-76
2022/12/04 11:15:20;;;;;;;;;;;5.50;99.90;;;;;;6127026;23;20327;-76
2022/12/04 11:17:46;;;;;;;;;;;5.60;99.90;;;;;;6127047;23;19916;-76
2022/12/04 11:20:16;;;;;;;;;;;5.90;99.90;;;;;;6101614;23;19907;-76
2022/12/04 11:22:48;;;;;;;;;;;6.00;99.90;;;;;;6101080;23;19901;-75
2022/12/04 11:25:15;;;;;;;;;;;6.10;99.90;;;;;;6127035;23;20343;-75
2022/12/04 11:27:44;;;;;;;;;;;6.00;99.90;;;;;;6127027;23;19901;-76
2022/12/04 11:30:12;;;;;;;;;;;6.00;99.90;;;;;;6127081;23;19908;-75
2022/12/04 11:32:38;;;;;;;;;;;6.00;99.90;;;;;;6126993;23;20284;-76
2022/12/04 11:35:10;;;;;;;;;;;6.10;99.90;;;;;;6100985;23;19928;-75
2022/12/04 11:37:36;;;;;;;;;;;6.10;99.90;;;;;;6126911;23;19955;-77
2022/12/04 11:40:06;;;;;;;;;;;6.10;99.90;;;;;;6126890;23;20276;-76
2022/12/04 11:42:32;;;;;;;;;;;6.00;99.90;;;;;;6126921;23;19901;-76
2022/12/04 11:44:59;;;;;;;;;;;5.90;99.90;;;;;;6126793;23;19989;-76
2022/12/04 11:47:27;;;;;;;;;;;5.70;99.90;;;;;;6100773;23;19901;-75
2022/12/04 11:50:02;;;;;;;;;;;5.70;99.90;;;;;;6126755;23;19956;-76
2022/12/04 11:52:46;;;;;;;;;;;5.70;99.90;;;;;;6127600;23;19907;-76
2022/12/04 11:55:17;;;;;;;;;;;5.80;99.90;;;;;;6126776;23;19901;-77
2022/12/04 11:57:52;;;;;;;;;;;5.90;99.90;;;;;;6126712;23;19908;-76
2022/12/04 12:00:21;;;;;;;;;;;5.90;99.90;;;;;;6126951;23;20370;-75
2022/12/04 12:02:46;;;;;;;;;;;6.10;99.90;;;;;;6126649;23;19920;-76
2022/12/04 12:05:12;;;;;;;;;;;6.20;99.90;;;;;;6127576;23;19900;-76
2022/12/04 12:08:01;;;;;;;;;;;6.80;99.90;;;;;;6128855;23;19901;-76
2022/12/04 12:10:37;;;;;;;;;;;7.20;99.90;;;;;;6116638;23;19912;-76
2022/12/04 12:13:22;;;;;;;;;;;7.10;99.90;;;;;;6128974;23;19936;-76
2022/12/04 12:16:02;;;;;;;;;;;6.80;99.90;;;;;;6128543;23;19956;-76
2022/12/04 12:18:30;;;;;;;;;;;6.60;99.90;;;;;;6128806;23;19905;-77
2022/12/04 12:21:04;;;;;;;;;;;6.40;99.90;;;;;;6128844;23;19901;-76
2022/12/04 12:23:48;;;;;;;;;;;6.40;99.90;;;;;;6128836;23;19905;-75
2022/12/04 12:26:15;;;;;;;;;;;6.40;99.90;;;;;;6129050;23;19981;-76
2022/12/04 12:28:59;;;;;;;;;;;6.40;99.90;;;;;;6128529;23;19905;-75
2022/12/04 12:31:35;;;;;;;;;;;6.30;99.90;;;;;;6128580;23;19901;-75
2022/12/04 12:34:14;;;;;;;;;;;6.20;99.90;;;;;;6128625;23;19955;-77
2022/12/04 12:36:42;;;;;;;;;;;6.40;99.90;;;;;;6129163;23;19987;-76
2022/12/04 12:39:11;;;;;;;;;;;6.40;99.90;;;;;;6128754;23;19929;-76
2022/12/04 12:41:46;;;;;;;;;;;6.40;99.90;;;;;;6128800;23;19958;-76
2022/12/04 12:44:30;;;;;;;;;;;6.50;99.90;;;;;;6128487;23;19901;-76
2022/12/04 12:46:59;;;;;;;;;;;6.40;99.90;;;;;;6102488;23;19979;-76
2022/12/04 12:49:28;;;;;;;;;;;6.40;99.90;;;;;;6128574;23;19960;-75
2022/12/04 12:51:58;;;;;;;;;;;6.30;99.90;;;;;;6102558;23;19907;-76
2022/12/04 12:54:31;;;;;;;;;;;6.30;99.90;;;;;;6128300;23;19901;-76
2022/12/04 12:57:12;;;;;;;;;;;6.40;99.90;;;;;;6128381;23;20379;-75
2022/12/04 12:59:40;;;;;;;;;;;6.40;99.90;;;;;;6128270;23;19901;-77
2022/12/04 13:02:26;;;;;;;;;;;6.50;99.90;;;;;;6128189;23;19940;-75
2022/12/04 13:04:54;;;;;;;;;;;6.50;99.90;;;;;;6128650;23;19901;-75
2022/12/04 13:07:25;;;;;;;;;;;6.60;99.90;;;;;;6128307;23;19909;-75
2022/12/04 13:10:09;;;;;;;;;;;6.60;99.90;;;;;;6128157;23;20312;-76
2022/12/04 13:12:43;;;;;;;;;;;6.70;99.90;;;;;;6128249;23;19901;-76
2022/12/04 13:15:13;;;;;;;;;;;6.60;99.90;;;;;;6102301;23;19912;-75
2022/12/04 13:17:39;;;;;;;;;;;6.60;99.90;;;;;;6128277;23;20331;-76
2022/12/04 13:20:10;;;;;;;;;;;6.50;99.90;;;;;;6128154;23;19959;-76
2022/12/04 13:22:35;;;;;;;;;;;6.50;99.90;;;;;;6101890;23;19901;-76
2022/12/04 13:25:20;;;;;;;;;;;6.40;99.90;;;;;;6128201;23;19908;-76
2022/12/04 13:27:57;;;;;;;;;;;6.40;99.90;;;;;;6128151;23;19900;-76
2022/12/04 13:30:40;;;;;;;;;;;6.30;99.90;;;;;;6128009;23;19904;-75
2022/12/04 13:33:05;;;;;;;;;;;6.30;99.90;;;;;;6128357;23;20248;-77
2022/12/04 13:35:49;;;;;;;;;;;6.40;99.90;;;;;;6127991;23;19907;-75
2022/12/04 13:38:35;;;;;;;;;;;6.40;99.90;;;;;;6127888;23;20339;-76
2022/12/04 13:41:03;;;;;;;;;;;6.40;99.90;;;;;;6082908;23;19936;-76
2022/12/04 13:43:40;;;;;;;;;;;6.30;99.90;;;;;;6128155;23;19900;-76
2022/12/04 13:46:18;;;;;;;;;;;6.40;99.90;;;;;;6128092;23;19901;-76
2022/12/04 13:48:43;;;;;;;;;;;6.40;99.90;;;;;;6127931;23;19960;-76
2022/12/04 13:51:12;;;;;;;;;;;6.40;99.90;;;;;;6127324;23;20339;-76
2022/12/04 13:53:39;;;;;;;;;;;6.30;99.90;;;;;;6127855;23;19976;-75
2022/12/04 13:56:05;;;;;;;;;;;6.30;99.90;;;;;;6127840;23;19923;-75
2022/12/04 13:58:32;;;;;;;;;;;6.40;99.90;;;;;;6127769;23;19908;-75
2022/12/04 14:01:05;;;;;;;;;;;6.30;99.90;;;;;;6101760;23;19931;-76
2022/12/04 14:03:37;;;;;;;;;;;6.30;99.90;;;;;;6127698;23;19913;-76
2022/12/04 14:06:06;;;;;;;;;;;6.40;99.90;;;;;;6127771;23;19952;-75
2022/12/04 14:08:36;;;;;;;;;;;6.20;99.90;;;;;;6127774;23;19904;-76
2022/12/04 14:11:11;;;;;;;;;;;6.10;99.90;;;;;;6127719;23;19901;-76
2022/12/04 14:13:43;;;;;;;;;;;6.10;99.90;;;;;;6127962;23;20220;-75
2022/12/04 14:16:21;;;;;;;;;;;6.00;99.90;;;;;;6128450;23;19912;-76
2022/12/04 14:18:48;;;;;;;;;;;6.00;99.90;;;;;;6127578;23;19932;-77
2022/12/04 14:21:14;;;;;;;;;;;5.90;99.90;;;;;;6127871;23;20003;-76
2022/12/04 14:23:40;;;;;;;;;;;5.90;99.90;;;;;;6128078;23;20328;-76
2022/12/04 14:26:24;;;;;;;;;;;5.90;99.90;;;;;;6127552;23;19907;-75
2022/12/04 14:28:50;;;;;;;;;;;5.90;99.90;;;;;;6127088;23;19905;-76
2022/12/04 14:31:16;;;;;;;;;;;5.80;99.90;;;;;;6128048;23;20027;-76
2022/12/04 14:33:48;;;;;;;;;;;5.90;99.90;;;;;;6101516;23;19901;-75
2022/12/04 14:36:24;;;;;;;;;;;5.90;99.90;;;;;;6127476;23;19901;-76
2022/12/04 14:38:54;;;;;;;;;;;5.90;99.90;;;;;;6127918;23;19984;-76
2022/12/04 14:41:25;;;;;;;;;;;5.80;99.90;;;;;;6127415;23;20319;-75
2022/12/04 14:43:50;;;;;;;;;;;5.90;99.90;;;;;;6127392;23;19905;-76
2022/12/04 14:46:16;;;;;;;;;;;5.90;99.90;;;;;;6127585;23;19901;-76
2022/12/04 14:48:49;;;;;;;;;;;5.90;99.90;;;;;;6101223;23;19936;-76
2022/12/04 14:51:15;;;;;;;;;;;5.80;99.90;;;;;;6100978;23;20043;-76
2022/12/04 14:54:05;;;;;;;;;;;5.80;99.90;;;;;;6127620;23;20353;-75